createdAt,value
2022-08-18T00:02:03.637Z,7.95
2022-08-18T00:05:07.573Z,8.60
2022-08-18T00:08:12.719Z,8.45
2022-08-18T00:11:16.263Z,8.50
2022-08-18T00:14:22.993Z,9.20
2022-08-18T00:17:25.852Z,8.40
2022-08-18T00:20:28.703Z,8.73
2022-08-18T00:23:32.674Z,9.00
2022-08-18T00:26:37.092Z,8.50
2022-08-18T00:29:41.246Z,8.33
2022-08-18T00:32:46.265Z,8.75
2022-08-18T00:35:48.950Z,8.98
2022-08-18T00:38:52.072Z,8.90
2022-08-18T00:41:55.902Z,8.90
2022-08-18T00:45:02.649Z,9.07
2022-08-18T00:48:06.856Z,8.35
2022-08-18T00:51:18.501Z,8.82
2022-08-18T00:54:25.081Z,8.63
2022-08-18T00:57:28.113Z,8.68
2022-08-18T01:00:33.073Z,8.03
2022-08-18T01:03:40.109Z,8.68
2022-08-18T01:06:48.452Z,8.70
2022-08-18T01:09:52.863Z,8.60
2022-08-18T01:12:57.610Z,8.90
2022-08-18T01:16:23.973Z,8.27
2022-08-18T01:19:46.284Z,8.88
2022-08-18T01:22:59.251Z,8.43
2022-08-18T01:26:04.383Z,8.88
2022-08-18T01:29:11.882Z,8.30
2022-08-18T01:32:24.125Z,8.50
2022-08-18T01:35:28.354Z,8.70
2022-08-18T01:38:40.682Z,8.25
2022-08-18T01:41:43.346Z,8.15
2022-08-18T01:44:51.299Z,8.95
2022-08-18T01:47:54.533Z,8.60
2022-08-18T01:50:57.284Z,8.68
2022-08-18T01:54:01.714Z,8.27
2022-08-18T01:57:05.648Z,9.07
2022-08-18T02:00:10.144Z,9.23
2022-08-18T02:03:16.010Z,9.00
2022-08-18T02:06:32.193Z,9.07
2022-08-18T02:09:40.143Z,9.40
2022-08-18T02:12:43.149Z,9.40
2022-08-18T02:15:45.940Z,9.15
2022-08-18T02:18:49.035Z,9.20
2022-08-18T02:21:53.138Z,9.13
2022-08-18T02:24:58.234Z,8.63
2022-08-18T02:28:00.885Z,8.93
2022-08-18T02:31:06.450Z,9.23
2022-08-18T02:34:09.093Z,8.77
2022-08-18T02:37:15.278Z,9.05
2022-08-18T02:40:20.033Z,9.38
2022-08-18T02:43:22.858Z,8.95
2022-08-18T02:46:29.706Z,9.55
2022-08-18T02:49:33.307Z,9.13
2022-08-18T02:52:36.287Z,9.50
2022-08-18T02:55:41.444Z,8.95
2022-08-18T02:58:44.100Z,9.38
2022-08-18T03:01:51.491Z,9.63
2022-08-18T03:04:54.876Z,9.43
2022-08-18T03:07:57.553Z,9.15
2022-08-18T03:11:01.630Z,9.27
2022-08-18T03:14:05.545Z,9.27
2022-08-18T03:17:10.585Z,9.50
2022-08-18T03:20:14.014Z,9.60
2022-08-18T03:23:16.940Z,9.88
2022-08-18T03:26:22.789Z,9.43
2022-08-18T03:29:31.743Z,9.30
2022-08-18T03:32:34.903Z,9.60
2022-08-18T03:35:38.330Z,8.67
2022-08-18T03:38:43.174Z,9.05
2022-08-18T03:41:58.481Z,10.10
2022-08-18T03:45:13.079Z,9.18
2022-08-18T03:48:20.562Z,9.65
2022-08-18T03:51:26.155Z,9.52
2022-08-18T03:54:29.212Z,9.70
2022-08-18T03:57:34.432Z,8.97
2022-08-18T04:00:42.378Z,9.07
2022-08-18T04:03:45.864Z,9.27
2022-08-18T04:06:51.166Z,9.23
2022-08-18T04:09:53.899Z,9.52
2022-08-18T04:12:57.858Z,9.43
2022-08-18T04:16:00.542Z,9.70
2022-08-18T04:19:05.293Z,9.45
2022-08-18T04:22:07.893Z,9.55
2022-08-18T04:25:10.914Z,9.43
2022-08-18T04:28:14.965Z,9.37
2022-08-18T04:31:18.293Z,9.57
2022-08-18T04:34:22.757Z,9.68
2022-08-18T04:37:25.725Z,9.50
2022-08-18T04:40:29.499Z,9.52
2022-08-18T04:43:33.985Z,9.97
2022-08-18T04:46:40.741Z,9.48
2022-08-18T04:49:43.811Z,9.70
2022-08-18T04:53:04.031Z,10.13
2022-08-18T04:56:07.362Z,9.93
2022-08-18T04:59:13.357Z,9.83
2022-08-18T05:02:18.532Z,9.60
2022-08-18T05:05:21.651Z,9.35
2022-08-18T05:08:24.826Z,9.90
2022-08-18T05:11:30.110Z,9.38
2022-08-18T05:14:36.007Z,9.87
2022-08-18T05:17:39.670Z,9.27
2022-08-18T05:20:43.862Z,9.07
2022-08-18T05:23:50.208Z,10.32
2022-08-18T05:26:55.171Z,9.73
2022-08-18T05:29:59.314Z,9.30
2022-08-18T05:33:03.468Z,9.60
2022-08-18T05:36:13.553Z,9.93
2022-08-18T05:39:23.891Z,9.00
2022-08-18T05:42:29.910Z,9.65
2022-08-18T05:45:34.816Z,9.37
2022-08-18T05:48:43.699Z,9.85
2022-08-18T05:51:49.168Z,10.07
2022-08-18T05:55:25.428Z,9.57
2022-08-18T05:58:38.484Z,10.18
2022-08-18T06:01:47.772Z,10.40
2022-08-18T06:04:56.106Z,9.80
2022-08-18T06:08:01.193Z,10.38
2022-08-18T06:11:03.830Z,9.73
2022-08-18T06:14:06.943Z,10.52
2022-08-18T06:17:29.129Z,10.03
2022-08-18T06:20:44.363Z,10.68
2022-08-18T06:23:56.575Z,10.15
2022-08-18T06:27:11.074Z,10.25
2022-08-18T06:30:18.758Z,10.02
2022-08-18T06:33:40.465Z,10.83
2022-08-18T06:36:53.126Z,10.60
2022-08-18T06:39:57.171Z,11.25
2022-08-18T06:43:02.121Z,10.70
2022-08-18T06:46:10.746Z,10.40
2022-08-18T06:49:22.829Z,9.97
2022-08-18T06:52:30.079Z,9.98
2022-08-18T06:55:35.297Z,10.85
2022-08-18T06:58:37.952Z,10.43
2022-08-18T07:01:41.158Z,10.10
2022-08-18T07:05:01.108Z,10.10
2022-08-18T07:08:30.290Z,9.82
2022-08-18T07:11:34.371Z,10.48
2022-08-18T07:14:45.915Z,10.43
2022-08-18T07:17:50.202Z,10.15
2022-08-18T07:20:57.215Z,10.23
2022-08-18T07:24:23.866Z,10.25
2022-08-18T07:27:42.675Z,10.68
2022-08-18T07:31:06.368Z,9.88
2022-08-18T07:34:14.280Z,9.95
2022-08-18T07:37:26.482Z,10.97
2022-08-18T07:40:39.349Z,11.25
2022-08-18T07:43:54.470Z,10.93
2022-08-18T07:47:01.395Z,11.18
2022-08-18T07:50:27.034Z,10.88
2022-08-18T07:53:44.914Z,10.77
2022-08-18T07:57:19.211Z,11.00
2022-08-18T08:00:54.923Z,10.40
2022-08-18T08:03:59.375Z,11.20
2022-08-18T08:07:24.042Z,10.68
2022-08-18T08:10:37.592Z,10.30
2022-08-18T08:13:56.075Z,10.95
2022-08-18T08:17:08.268Z,11.60
2022-08-18T08:20:19.779Z,10.80
2022-08-18T08:23:29.974Z,11.73
2022-08-18T08:26:48.594Z,11.03
2022-08-18T08:30:01.357Z,11.00
2022-08-18T08:33:10.801Z,11.15
2022-08-18T08:36:19.723Z,11.73
2022-08-18T08:39:28.857Z,11.63
2022-08-18T08:42:41.018Z,10.63
2022-08-18T08:45:49.255Z,14.57
2022-08-18T08:49:00.740Z,12.98
2022-08-18T08:52:11.120Z,11.90
2022-08-18T08:55:19.085Z,11.65
2022-08-18T08:58:29.768Z,12.70
2022-08-18T09:01:39.078Z,11.80
2022-08-18T09:05:08.342Z,11.20
2022-08-18T09:08:28.745Z,11.02
2022-08-18T09:12:06.440Z,11.93
2022-08-18T09:15:28.376Z,12.00
2022-08-18T09:18:43.984Z,12.10
2022-08-18T09:21:53.234Z,12.07
2022-08-18T09:24:56.308Z,11.63
2022-08-18T09:28:11.423Z,11.70
2022-08-18T09:31:20.059Z,12.03
2022-08-18T09:34:41.372Z,11.93
2022-08-18T09:38:12.945Z,12.00
2022-08-18T09:41:34.102Z,12.30
2022-08-18T09:45:08.298Z,12.52
2022-08-18T09:48:31.728Z,11.57
2022-08-18T09:51:40.210Z,12.48
2022-08-18T09:54:52.620Z,12.50
2022-08-18T09:58:17.333Z,12.40
2022-08-18T10:01:40.701Z,12.45
2022-08-18T10:04:51.012Z,12.33
2022-08-18T10:08:21.406Z,11.73
2022-08-18T10:11:40.367Z,12.27
2022-08-18T10:15:32.800Z,12.27
2022-08-18T10:18:53.048Z,12.45
2022-08-18T10:22:07.431Z,11.80
2022-08-18T10:25:22.919Z,12.77
2022-08-18T10:28:54.803Z,12.07
2022-08-18T10:32:24.359Z,11.65
2022-08-18T10:35:59.066Z,12.30
2022-08-18T10:39:06.793Z,12.23
2022-08-18T10:42:19.405Z,12.18
2022-08-18T10:45:27.155Z,11.68
2022-08-18T10:48:33.108Z,11.90
2022-08-18T10:51:59.260Z,12.15
2022-08-18T10:55:48.187Z,10.90
2022-08-18T10:59:04.363Z,11.50
2022-08-18T11:02:20.197Z,11.43
2022-08-18T11:05:26.930Z,11.32
2022-08-18T11:08:43.535Z,11.57
2022-08-18T11:11:55.860Z,11.60
2022-08-18T11:15:22.096Z,11.70
2022-08-18T11:18:42.554Z,11.32
2022-08-18T11:21:51.110Z,12.70
2022-08-18T11:24:54.715Z,12.40
2022-08-18T11:28:00.663Z,11.10
2022-08-18T11:31:06.487Z,11.98
2022-08-18T11:34:18.456Z,12.27
2022-08-18T11:37:48.907Z,11.43
2022-08-18T11:41:11.985Z,10.77
2022-08-18T11:44:21.324Z,11.02
2022-08-18T11:47:27.980Z,10.25
2022-08-18T11:50:33.839Z,11.00
2022-08-18T11:53:42.799Z,9.90
2022-08-18T11:56:47.798Z,11.23
2022-08-18T12:00:00.396Z,11.57
2022-08-18T12:03:04.829Z,9.73
2022-08-18T12:06:19.877Z,10.05
2022-08-18T12:16:32.017Z,8.88
2022-08-18T12:19:35.023Z,8.82
2022-08-18T12:22:39.933Z,8.45
2022-08-18T12:25:43.311Z,8.53
2022-08-18T12:28:46.147Z,8.53
2022-08-18T12:31:52.433Z,9.00
2022-08-18T12:38:21.156Z,8.57
2022-08-18T12:41:24.181Z,8.43
2022-08-18T12:44:27.486Z,9.60
2022-08-18T12:47:32.163Z,8.50
2022-08-18T12:50:41.158Z,8.27
2022-08-18T12:53:59.171Z,8.57
2022-08-18T12:57:04.630Z,8.17
2022-08-18T13:03:35.102Z,8.25
2022-08-18T13:06:50.324Z,7.93
2022-08-18T13:10:03.625Z,8.15
2022-08-18T13:13:06.964Z,7.87
2022-08-18T13:16:16.522Z,8.07
2022-08-18T13:19:36.989Z,7.97
2022-08-18T13:22:41.160Z,7.55
2022-08-18T13:25:44.235Z,7.55
2022-08-18T13:28:56.601Z,7.77
2022-08-18T13:32:00.526Z,8.07
2022-08-18T13:35:09.120Z,7.43
2022-08-18T13:38:22.002Z,8.45
2022-08-18T13:41:28.760Z,8.30
2022-08-18T13:44:35.130Z,7.63
2022-08-18T13:47:38.854Z,7.90
2022-08-18T13:50:42.825Z,7.63
2022-08-18T13:54:17.438Z,8.30
2022-08-18T13:57:11.198Z,9.13
2022-08-18T14:00:18.379Z,8.67
2022-08-18T14:03:42.863Z,8.57
2022-08-18T14:06:56.120Z,8.85
2022-08-18T14:10:03.654Z,9.27
2022-08-18T14:13:11.961Z,9.73
2022-08-18T14:16:26.642Z,9.50
2022-08-18T14:19:47.955Z,9.73
2022-08-18T14:23:12.142Z,9.73
2022-08-18T14:26:32.582Z,9.50
2022-08-18T14:29:45.808Z,9.10
2022-08-18T14:32:50.717Z,9.37
2022-08-18T14:36:06.711Z,8.70
2022-08-18T14:39:13.484Z,9.07
2022-08-18T14:42:18.880Z,8.77
2022-08-18T14:45:31.280Z,8.65
2022-08-18T14:48:37.995Z,8.80
2022-08-18T14:51:45.186Z,8.40
2022-08-18T14:54:51.261Z,8.07
2022-08-18T14:57:54.409Z,8.20
2022-08-18T15:00:58.929Z,8.00
2022-08-18T15:04:18.466Z,8.60
2022-08-18T15:07:23.739Z,8.83
2022-08-18T15:10:28.415Z,8.70
2022-08-18T15:13:32.134Z,7.50
2022-08-18T15:16:38.613Z,7.68
2022-08-18T15:20:00.064Z,7.77
2022-08-18T15:23:24.794Z,7.67
2022-08-18T15:26:32.617Z,6.53
2022-08-18T15:29:37.315Z,6.00
2022-08-18T15:32:45.555Z,5.82
2022-08-18T15:35:50.520Z,6.20
2022-08-18T15:38:53.796Z,5.87
2022-08-18T15:41:58.475Z,5.90
2022-08-18T15:45:11.675Z,5.85
2022-08-18T15:48:17.902Z,5.90
2022-08-18T15:51:20.635Z,6.00
2022-08-18T15:54:23.329Z,6.30
2022-08-18T15:57:39.031Z,5.85
2022-08-18T16:00:48.776Z,5.90
2022-08-18T16:03:55.504Z,5.57
2022-08-18T16:06:58.363Z,5.60
2022-08-18T16:10:02.310Z,5.80
2022-08-18T16:13:06.967Z,5.57
2022-08-18T16:16:12.238Z,5.57
2022-08-18T16:19:15.044Z,5.90
2022-08-18T16:22:17.882Z,5.90
2022-08-18T16:25:21.685Z,5.70
2022-08-18T16:28:34.492Z,5.68
2022-08-18T16:31:37.742Z,5.60
2022-08-18T16:34:41.527Z,6.18
2022-08-18T16:37:44.327Z,6.07
2022-08-18T16:40:47.515Z,6.00
2022-08-18T16:43:51.553Z,5.40
2022-08-18T16:46:54.406Z,6.13
2022-08-18T16:49:58.783Z,6.22
2022-08-18T16:53:01.846Z,6.23
2022-08-18T16:56:04.991Z,6.63
2022-08-18T17:02:57.170Z,7.50
2022-08-18T17:06:01.135Z,7.17
2022-08-18T17:09:10.099Z,6.90
2022-08-18T17:12:12.989Z,6.60
2022-08-18T17:15:17.291Z,7.23
2022-08-18T17:18:20.928Z,7.22
2022-08-18T17:21:27.017Z,6.95
2022-08-18T17:24:31.824Z,6.88
2022-08-18T17:27:37.622Z,6.57
2022-08-18T17:30:47.948Z,7.43
2022-08-18T17:33:50.763Z,7.05
2022-08-18T17:36:56.863Z,7.53
2022-08-18T17:40:04.859Z,7.22
2022-08-18T17:43:12.661Z,6.43
2022-08-18T17:46:27.330Z,7.20
2022-08-18T17:50:26.348Z,6.70
2022-08-18T17:53:18.819Z,6.18
2022-08-18T17:56:35.614Z,6.70
2022-08-18T17:59:52.030Z,7.20
2022-08-18T18:02:56.292Z,6.63
2022-08-18T18:06:04.128Z,6.78
2022-08-18T18:09:09.711Z,6.57
2022-08-18T18:12:23.671Z,6.68
2022-08-18T18:15:33.167Z,6.70
2022-08-18T18:18:42.746Z,6.77
2022-08-18T18:21:53.583Z,6.53
2022-08-18T18:25:06.681Z,6.50
2022-08-18T18:28:26.838Z,6.30
2022-08-18T18:31:32.928Z,6.28
2022-08-18T18:34:39.794Z,6.40
2022-08-18T18:37:52.260Z,6.25
2022-08-18T18:40:58.995Z,6.97
2022-08-18T18:44:09.072Z,6.32
2022-08-18T18:47:23.682Z,6.70
2022-08-18T18:50:36.920Z,6.50
2022-08-18T18:53:49.822Z,6.57
2022-08-18T18:56:56.435Z,7.32
2022-08-18T19:00:11.617Z,6.90
2022-08-18T19:03:21.095Z,7.03
2022-08-18T19:06:32.059Z,7.03
2022-08-18T19:09:42.165Z,7.00
2022-08-18T19:12:53.974Z,7.93
2022-08-18T19:16:01.107Z,6.72
2022-08-18T19:19:38.365Z,7.50
2022-08-18T19:22:41.130Z,6.80
2022-08-18T19:25:47.855Z,7.07
2022-08-18T19:29:12.886Z,6.70
2022-08-18T19:32:21.398Z,7.10
2022-08-18T19:35:35.504Z,6.68
2022-08-18T19:38:45.875Z,6.57
2022-08-18T19:41:56.528Z,6.78
2022-08-18T19:45:16.309Z,7.05
2022-08-18T19:48:30.868Z,6.45
2022-08-18T19:51:35.821Z,6.97
2022-08-18T19:54:55.372Z,6.90
2022-08-18T19:58:22.005Z,6.90
2022-08-18T20:01:36.771Z,6.57
2022-08-18T20:05:04.456Z,7.00
2022-08-18T20:08:30.627Z,7.00
2022-08-18T20:11:48.350Z,6.55
2022-08-18T20:15:02.763Z,6.85
2022-08-18T20:18:20.005Z,6.35
2022-08-18T20:21:39.811Z,6.47
2022-08-18T20:24:50.844Z,6.10
2022-08-18T20:28:32.752Z,6.22
2022-08-18T20:31:51.533Z,6.68
2022-08-18T20:34:54.150Z,6.80
2022-08-18T20:38:14.761Z,6.60
2022-08-18T20:41:43.568Z,6.53
2022-08-18T20:44:58.734Z,6.25
2022-08-18T20:48:14.056Z,6.00
2022-08-18T20:51:25.166Z,6.60
2022-08-18T20:54:39.944Z,6.20
2022-08-18T20:58:05.462Z,6.57
2022-08-18T21:01:13.919Z,6.43
2022-08-18T21:04:16.589Z,6.35
2022-08-18T21:07:34.197Z,6.82
2022-08-18T21:10:48.830Z,6.50
2022-08-18T21:13:53.677Z,6.83
2022-08-18T21:16:58.880Z,6.53
2022-08-18T21:20:06.509Z,6.60
2022-08-18T21:23:12.183Z,6.70
2022-08-18T21:26:17.340Z,6.13
2022-08-18T21:29:20.108Z,6.93
2022-08-18T21:32:29.301Z,5.95
2022-08-18T21:35:35.237Z,7.10
2022-08-18T21:38:37.873Z,6.60
2022-08-18T21:41:42.797Z,6.82
2022-08-18T21:44:47.681Z,5.93
2022-08-18T21:47:56.621Z,6.60
2022-08-18T21:51:02.043Z,6.60
2022-08-18T21:54:05.079Z,6.45
2022-08-18T21:57:23.417Z,6.78
2022-08-18T22:00:28.424Z,6.90
2022-08-18T22:03:33.910Z,4.75
2022-08-18T22:06:40.215Z,6.80
2022-08-18T22:10:16.816Z,6.70
2022-08-18T22:13:39.558Z,6.70
2022-08-18T22:16:42.565Z,6.78
2022-08-18T22:19:46.525Z,6.40
2022-08-18T22:23:07.226Z,6.43
2022-08-18T22:26:13.141Z,6.70
2022-08-18T22:29:26.383Z,6.53
2022-08-18T22:32:29.016Z,6.53
2022-08-18T22:35:33.234Z,7.35
2022-08-18T22:38:36.340Z,7.07
2022-08-18T22:41:39.890Z,7.30
2022-08-18T22:44:43.589Z,7.43
2022-08-18T22:47:46.378Z,6.82
2022-08-18T22:50:51.540Z,7.43
2022-08-18T22:53:55.884Z,7.03
2022-08-18T22:56:59.281Z,6.80
2022-08-18T23:00:03.825Z,6.65
2022-08-18T23:03:06.486Z,6.68
2022-08-18T23:06:11.257Z,7.10
2022-08-18T23:09:13.881Z,7.35
2022-08-18T23:12:16.707Z,7.43
2022-08-18T23:15:19.636Z,6.85
2022-08-18T23:18:24.787Z,7.00
2022-08-18T23:21:34.116Z,7.93
2022-08-18T23:24:38.301Z,7.47
2022-08-18T23:27:41.367Z,7.97
2022-08-18T23:30:44.873Z,7.88
2022-08-18T23:33:47.507Z,8.02
2022-08-18T23:36:56.544Z,7.93
2022-08-18T23:39:59.319Z,7.97
2022-08-18T23:43:02.772Z,7.87
2022-08-18T23:46:06.646Z,8.90
2022-08-18T23:49:10.841Z,8.57
2022-08-18T23:52:15.090Z,8.55
2022-08-18T23:55:17.951Z,9.05
2022-08-18T23:58:20.890Z,8.53
